Time;durP1;ratioP1;P1;durP2;ratioP2;P2;SDS_P1;SDS_P2;PMS_P1;PMS_P2;Temp;Humidity;BMP_temperature;BMP_pressure;BME280_temperature;BME280_humidity;BME280_pressure;Samples;Min_cycle;Max_cycle;Signal;HPM_P1;HPM_P2
2021/07/05 00:01:44;;;;;;;20.80;19.20;;;;;;;;;;5096295;28;20490;-95
2021/07/05 00:04:13;;;;;;;20.27;19.13;;;;;;;;;;5097232;28;20431;-94
2021/07/05 00:06:41;;;;;;;21.80;19.93;;;;;;;;;;5096402;28;20454;-94
2021/07/05 00:09:08;;;;;;;21.60;19.90;;;;;;;;;;5096808;28;20400;-93
2021/07/05 00:11:36;;;;;;;20.87;19.53;;;;;;;;;;5095986;28;20427;-94
2021/07/05 00:14:03;;;;;;;20.17;18.87;;;;;;;;;;5096219;28;20435;-93
2021/07/05 00:16:31;;;;;;;20.30;18.83;;;;;;;;;;5096150;28;20433;-94
2021/07/05 00:18:58;;;;;;;21.40;19.27;;;;;;;;;;5096089;28;20435;-95
2021/07/05 00:21:27;;;;;;;20.77;19.47;;;;;;;;;;5095777;28;20497;-93
2021/07/05 00:23:55;;;;;;;20.60;19.00;;;;;;;;;;5095974;28;20450;-94
2021/07/05 00:26:22;;;;;;;21.00;19.80;;;;;;;;;;5077816;28;20427;-94
2021/07/05 00:28:50;;;;;;;21.30;19.63;;;;;;;;;;5095580;28;20414;-93
2021/07/05 00:31:17;;;;;;;21.00;19.70;;;;;;;;;;5078215;28;20457;-93
2021/07/05 00:33:45;;;;;;;21.70;20.20;;;;;;;;;;5095347;28;20430;-94
2021/07/05 00:36:13;;;;;;;20.60;19.30;;;;;;;;;;5095341;28;20453;-94
2021/07/05 00:38:42;;;;;;;21.93;20.70;;;;;;;;;;5095627;28;20882;-94
2021/07/05 00:41:09;;;;;;;21.83;20.33;;;;;;;;;;5095086;28;20496;-94
2021/07/05 00:43:37;;;;;;;21.30;19.90;;;;;;;;;;5096008;28;20439;-93
2021/07/05 00:46:04;;;;;;;20.93;19.60;;;;;;;;;;5095507;28;20448;-93
2021/07/05 00:48:32;;;;;;;21.80;20.40;;;;;;;;;;5095530;28;20437;-94
2021/07/05 00:50:59;;;;;;;21.80;20.20;;;;;;;;;;5095418;28;20518;-94
2021/07/05 00:53:27;;;;;;;21.43;20.13;;;;;;;;;;5095205;28;20430;-94
2021/07/05 00:55:56;;;;;;;21.80;20.40;;;;;;;;;;5095080;28;20455;-94
2021/07/05 00:58:23;;;;;;;21.63;20.20;;;;;;;;;;5077332;28;20442;-93
2021/07/05 01:00:51;;;;;;;21.27;20.00;;;;;;;;;;5094905;28;20466;-94
2021/07/05 01:03:18;;;;;;;22.47;21.07;;;;;;;;;;5094913;28;20447;-93
2021/07/05 01:05:45;;;;;;;20.93;19.77;;;;;;;;;;5095134;28;20417;-93
2021/07/05 01:08:13;;;;;;;20.73;19.50;;;;;;;;;;5077193;28;20418;-94
2021/07/05 01:10:40;;;;;;;20.70;19.50;;;;;;;;;;5095412;28;20433;-94
2021/07/05 01:13:09;;;;;;;21.00;19.70;;;;;;;;;;5095054;28;20441;-93
2021/07/05 01:15:36;;;;;;;21.90;20.10;;;;;;;;;;5095071;28;20772;-93
2021/07/05 01:18:05;;;;;;;21.70;20.43;;;;;;;;;;5094803;28;20936;-93
2021/07/05 01:20:33;;;;;;;21.70;20.30;;;;;;;;;;5076726;28;20505;-94
2021/07/05 01:23:03;;;;;;;20.90;19.60;;;;;;;;;;5094803;28;20452;-93
2021/07/05 01:25:32;;;;;;;20.77;19.63;;;;;;;;;;5094679;28;20446;-94
2021/07/05 01:28:00;;;;;;;21.90;20.40;;;;;;;;;;5060492;28;20477;-94
2021/07/05 01:30:28;;;;;;;21.40;20.10;;;;;;;;;;5094735;28;20447;-94
2021/07/05 01:32:57;;;;;;;19.93;18.93;;;;;;;;;;5094680;28;20431;-94
2021/07/05 01:35:24;;;;;;;21.30;20.10;;;;;;;;;;5076867;28;20824;-93
2021/07/05 01:37:52;;;;;;;21.17;19.77;;;;;;;;;;5076958;28;20508;-94
2021/07/05 01:40:21;;;;;;;21.37;19.57;;;;;;;;;;5093797;28;20496;-93
2021/07/05 01:42:51;;;;;;;21.33;20.00;;;;;;;;;;5093883;28;20432;-95
2021/07/05 01:45:19;;;;;;;20.40;19.20;;;;;;;;;;5094233;28;20442;-94
2021/07/05 01:47:46;;;;;;;21.73;20.53;;;;;;;;;;5094464;28;20423;-93
2021/07/05 01:50:14;;;;;;;22.80;21.33;;;;;;;;;;5094522;28;20950;-93
2021/07/05 01:52:41;;;;;;;21.17;19.80;;;;;;;;;;5094669;28;20512;-94
2021/07/05 01:55:09;;;;;;;23.17;21.67;;;;;;;;;;5094443;28;20437;-93
2021/07/05 01:57:39;;;;;;;22.03;20.63;;;;;;;;;;5094495;28;20413;-93
2021/07/05 02:00:09;;;;;;;22.43;20.67;;;;;;;;;;5094359;28;20423;-93
2021/07/05 02:02:37;;;;;;;21.50;20.20;;;;;;;;;;5094433;28;20791;-94
2021/07/05 02:05:06;;;;;;;22.30;20.77;;;;;;;;;;5094644;28;20904;-94
2021/07/05 02:07:33;;;;;;;23.63;21.90;;;;;;;;;;5094024;28;20453;-94
2021/07/05 02:10:01;;;;;;;22.00;20.60;;;;;;;;;;5094569;28;20434;-93
2021/07/05 02:12:28;;;;;;;22.60;20.90;;;;;;;;;;5094209;28;20422;-94
2021/07/05 02:14:57;;;;;;;21.80;20.43;;;;;;;;;;5093981;28;20453;-94
2021/07/05 02:17:25;;;;;;;21.77;20.47;;;;;;;;;;5093954;28;20839;-94
2021/07/05 02:19:52;;;;;;;20.63;19.43;;;;;;;;;;5094719;28;20460;-94
2021/07/05 02:22:20;;;;;;;21.23;19.93;;;;;;;;;;5093970;28;20998;-94
2021/07/05 02:24:47;;;;;;;21.67;20.37;;;;;;;;;;5094375;28;20412;-93
2021/07/05 02:27:15;;;;;;;22.57;21.17;;;;;;;;;;5075972;28;20955;-94
2021/07/05 02:29:42;;;;;;;21.50;20.30;;;;;;;;;;5094653;28;20449;-94
2021/07/05 02:32:11;;;;;;;21.67;20.40;;;;;;;;;;5093950;28;20453;-94
2021/07/05 02:34:39;;;;;;;22.83;21.33;;;;;;;;;;5076191;28;20415;-94
2021/07/05 02:37:06;;;;;;;21.03;19.83;;;;;;;;;;5094088;28;20405;-93
2021/07/05 02:39:34;;;;;;;22.47;21.07;;;;;;;;;;5093902;28;20461;-93
2021/07/05 02:42:01;;;;;;;21.87;20.60;;;;;;;;;;5093953;28;20470;-93
2021/07/05 02:44:28;;;;;;;22.43;20.73;;;;;;;;;;5094105;28;20438;-93
2021/07/05 02:46:56;;;;;;;22.70;21.20;;;;;;;;;;5075922;28;20446;-94
2021/07/05 02:49:25;;;;;;;22.50;21.00;;;;;;;;;;5094515;28;20437;-94
2021/07/05 02:51:52;;;;;;;22.87;21.17;;;;;;;;;;5094180;28;20441;-93
2021/07/05 02:54:19;;;;;;;23.27;21.67;;;;;;;;;;5093960;28;20924;-94
2021/07/05 02:56:47;;;;;;;22.70;21.30;;;;;;;;;;5094166;28;20420;-93
2021/07/05 02:59:15;;;;;;;22.97;21.17;;;;;;;;;;5078942;28;20449;-94
2021/07/05 03:01:42;;;;;;;22.23;20.73;;;;;;;;;;5097753;28;20556;-94
2021/07/05 03:04:10;;;;;;;21.73;20.33;;;;;;;;;;5079701;28;20445;-93
2021/07/05 03:06:39;;;;;;;24.23;22.70;;;;;;;;;;5097656;28;20433;-94
2021/07/05 03:09:06;;;;;;;22.63;21.13;;;;;;;;;;5097464;28;20412;-94
2021/07/05 03:11:34;;;;;;;22.30;20.90;;;;;;;;;;5097182;28;20411;-94
2021/07/05 03:14:02;;;;;;;22.33;21.10;;;;;;;;;;5079670;28;20544;-94
2021/07/05 03:16:29;;;;;;;21.77;20.37;;;;;;;;;;5097218;28;20435;-94
2021/07/05 03:18:57;;;;;;;21.63;20.33;;;;;;;;;;5097214;28;20434;-94
2021/07/05 03:21:24;;;;;;;22.20;20.37;;;;;;;;;;5079041;28;20492;-94
2021/07/05 03:23:53;;;;;;;21.53;20.23;;;;;;;;;;5096837;28;20453;-94
2021/07/05 03:26:21;;;;;;;22.47;20.87;;;;;;;;;;5079040;28;20420;-94
2021/07/05 03:28:48;;;;;;;22.77;21.03;;;;;;;;;;5096746;28;20409;-94
2021/07/05 03:31:15;;;;;;;22.70;21.30;;;;;;;;;;5097050;28;20894;-93
2021/07/05 03:33:43;;;;;;;22.83;21.33;;;;;;;;;;5097141;28;20434;-93
2021/07/05 03:36:10;;;;;;;22.40;20.90;;;;;;;;;;5096832;28;20412;-93
2021/07/05 03:38:38;;;;;;;23.17;21.63;;;;;;;;;;5096857;28;20412;-93
2021/07/05 03:41:07;;;;;;;22.13;20.83;;;;;;;;;;5096320;28;20459;-93
2021/07/05 03:43:34;;;;;;;23.57;21.87;;;;;;;;;;5096734;28;20412;-93
2021/07/05 03:46:02;;;;;;;21.70;20.40;;;;;;;;;;5096488;28;20425;-91
2021/07/05 03:48:29;;;;;;;23.53;21.93;;;;;;;;;;5096541;28;20408;-91
2021/07/05 03:50:56;;;;;;;21.60;20.20;;;;;;;;;;5096327;28;20415;-91
2021/07/05 03:53:24;;;;;;;21.97;20.50;;;;;;;;;;5097252;28;20446;-94
2021/07/05 03:55:51;;;;;;;21.10;19.90;;;;;;;;;;5078706;28;20771;-94
2021/07/05 03:58:20;;;;;;;21.93;20.63;;;;;;;;;;5096456;28;20893;-90
2021/07/05 04:00:47;;;;;;;21.77;20.47;;;;;;;;;;5096243;28;20415;-91
2021/07/05 04:03:15;;;;;;;21.70;20.37;;;;;;;;;;5096438;28;20427;-91
2021/07/05 04:05:42;;;;;;;22.77;21.33;;;;;;;;;;5096259;28;20487;-90
2021/07/05 04:08:10;;;;;;;21.93;20.50;;;;;;;;;;5096168;28;20438;-90
2021/07/05 04:10:38;;;;;;;19.77;18.67;;;;;;;;;;5095906;28;20416;-91
2021/07/05 04:13:07;;;;;;;20.73;19.63;;;;;;;;;;5096333;28;20438;-90
2021/07/05 04:15:36;;;;;;;20.90;19.23;;;;;;;;;;5095729;28;20437;-90
2021/07/05 04:18:04;;;;;;;20.50;19.17;;;;;;;;;;5095679;28;20416;-91
2021/07/05 04:20:31;;;;;;;21.67;20.07;;;;;;;;;;5095955;28;20835;-89
2021/07/05 04:22:59;;;;;;;20.93;19.73;;;;;;;;;;5095975;28;20459;-91
2021/07/05 04:25:26;;;;;;;21.10;19.60;;;;;;;;;;5095848;28;20412;-91
2021/07/05 04:27:54;;;;;;;20.30;19.00;;;;;;;;;;5095533;28;20453;-91
2021/07/05 04:30:22;;;;;;;21.80;20.07;;;;;;;;;;5095968;28;20409;-91
2021/07/05 04:32:51;;;;;;;20.30;18.90;;;;;;;;;;5096292;28;20429;-91
2021/07/05 04:35:20;;;;;;;19.80;18.70;;;;;;;;;;5078852;28;20465;-91
2021/07/05 04:37:47;;;;;;;20.27;19.13;;;;;;;;;;5095420;28;20459;-90
2021/07/05 04:40:15;;;;;;;20.60;19.40;;;;;;;;;;5095232;28;20993;-91
2021/07/05 04:42:44;;;;;;;20.67;19.57;;;;;;;;;;5095525;28;20483;-90
2021/07/05 04:45:12;;;;;;;21.20;20.00;;;;;;;;;;5095346;28;20442;-91
2021/07/05 04:47:40;;;;;;;22.53;21.00;;;;;;;;;;5096137;28;20839;-91
2021/07/05 04:50:10;;;;;;;20.83;19.63;;;;;;;;;;5095410;28;20436;-91
2021/07/05 04:52:38;;;;;;;21.03;19.83;;;;;;;;;;5095569;28;20502;-91
2021/07/05 04:55:06;;;;;;;21.67;20.37;;;;;;;;;;5094948;28;20458;-90
2021/07/05 04:57:33;;;;;;;21.77;20.30;;;;;;;;;;5095418;28;20404;-91
2021/07/05 05:00:01;;;;;;;20.57;19.47;;;;;;;;;;5095798;28;20446;-89
2021/07/05 05:02:28;;;;;;;21.10;19.80;;;;;;;;;;5094822;28;20468;-91
2021/07/05 05:04:55;;;;;;;20.33;19.13;;;;;;;;;;5094994;28;20461;-91
2021/07/05 05:07:24;;;;;;;20.00;18.93;;;;;;;;;;5077515;28;20441;-90
2021/07/05 05:09:52;;;;;;;20.27;19.17;;;;;;;;;;5094800;28;20439;-90
2021/07/05 05:12:20;;;;;;;19.87;18.97;;;;;;;;;;5095105;28;20450;-91
2021/07/05 05:14:48;;;;;;;20.90;19.67;;;;;;;;;;5095251;28;20529;-91
2021/07/05 05:17:15;;;;;;;19.40;18.40;;;;;;;;;;5094749;28;20444;-91
2021/07/05 05:19:42;;;;;;;20.40;19.20;;;;;;;;;;5095765;28;20453;-90
2021/07/05 05:22:10;;;;;;;19.90;18.80;;;;;;;;;;5093738;28;20858;-90
2021/07/05 05:24:39;;;;;;;19.67;18.67;;;;;;;;;;5095241;28;20453;-90
2021/07/05 05:27:06;;;;;;;19.43;18.33;;;;;;;;;;5094386;28;20895;-91
2021/07/05 05:29:33;;;;;;;18.37;17.30;;;;;;;;;;5094521;28;20408;-91
2021/07/05 05:32:01;;;;;;;18.00;17.00;;;;;;;;;;5076887;28;20453;-90
2021/07/05 05:34:29;;;;;;;18.03;17.10;;;;;;;;;;5077177;28;20473;-91
2021/07/05 05:36:56;;;;;;;20.00;18.53;;;;;;;;;;5094479;28;20417;-90
2021/07/05 05:39:23;;;;;;;18.10;17.10;;;;;;;;;;5094691;28;20408;-90
2021/07/05 05:41:52;;;;;;;19.53;18.03;;;;;;;;;;5094411;28;20455;-90
2021/07/05 05:44:20;;;;;;;18.37;17.37;;;;;;;;;;5094562;28;20415;-91
2021/07/05 05:46:47;;;;;;;19.27;18.00;;;;;;;;;;5094504;28;20404;-90
2021/07/05 05:49:15;;;;;;;18.67;17.70;;;;;;;;;;5095081;28;20410;-90
2021/07/05 05:51:42;;;;;;;17.33;16.43;;;;;;;;;;5094647;28;20416;-91
2021/07/05 05:54:11;;;;;;;17.77;16.87;;;;;;;;;;5077040;28;20431;-90
2021/07/05 05:56:40;;;;;;;18.60;17.37;;;;;;;;;;5076421;28;20492;-90
2021/07/05 05:59:11;;;;;;;18.37;17.47;;;;;;;;;;5094167;28;20838;-91
2021/07/05 06:01:40;;;;;;;18.30;17.40;;;;;;;;;;5094424;28;20971;-90
2021/07/05 06:04:08;;;;;;;18.57;17.57;;;;;;;;;;5094458;28;20467;-91
2021/07/05 06:06:38;;;;;;;18.57;17.57;;;;;;;;;;5076532;28;21048;-91
2021/07/05 06:09:05;;;;;;;18.47;17.47;;;;;;;;;;5094393;28;20445;-88
2021/07/05 06:11:35;;;;;;;17.30;16.60;;;;;;;;;;5094114;28;20977;-88
2021/07/05 06:14:03;;;;;;;18.03;17.03;;;;;;;;;;5095056;28;20452;-87
2021/07/05 06:16:32;;;;;;;18.20;17.30;;;;;;;;;;5076397;28;20433;-88
2021/07/05 06:18:59;;;;;;;18.47;17.47;;;;;;;;;;5094686;28;20420;-88
2021/07/05 06:21:27;;;;;;;18.57;17.67;;;;;;;;;;5093857;28;20837;-88
2021/07/05 06:23:54;;;;;;;19.40;18.10;;;;;;;;;;5094136;28;20416;-88
2021/07/05 06:26:22;;;;;;;19.50;18.30;;;;;;;;;;5094002;28;20940;-88
2021/07/05 06:28:50;;;;;;;19.63;18.50;;;;;;;;;;5094250;28;20434;-88
2021/07/05 06:31:18;;;;;;;18.97;17.77;;;;;;;;;;5094222;28;20564;-88
2021/07/05 06:33:47;;;;;;;19.33;18.10;;;;;;;;;;5097598;28;20435;-88
2021/07/05 06:36:15;;;;;;;19.33;18.03;;;;;;;;;;5097577;28;20442;-88
2021/07/05 06:38:43;;;;;;;20.50;19.20;;;;;;;;;;5097968;28;20465;-88
2021/07/05 06:41:10;;;;;;;20.10;19.00;;;;;;;;;;5097488;28;20995;-88
2021/07/05 06:43:38;;;;;;;21.13;19.63;;;;;;;;;;5097775;28;20485;-88
2021/07/05 06:46:05;;;;;;;19.33;18.33;;;;;;;;;;5097878;28;20440;-87
2021/07/05 06:48:33;;;;;;;18.87;17.77;;;;;;;;;;5080046;28;20841;-86
2021/07/05 06:51:02;;;;;;;19.17;17.87;;;;;;;;;;5080278;28;20443;-86
2021/07/05 06:53:29;;;;;;;18.67;17.70;;;;;;;;;;5097664;28;20420;-92
2021/07/05 06:55:57;;;;;;;20.07;18.97;;;;;;;;;;5097536;28;20409;-92
2021/07/05 06:58:24;;;;;;;19.00;18.00;;;;;;;;;;5097587;28;20422;-92
2021/07/05 07:00:51;;;;;;;18.50;17.60;;;;;;;;;;5097595;28;20449;-93
2021/07/05 07:03:22;;;;;;;19.63;18.53;;;;;;;;;;5079470;28;20898;-94
2021/07/05 07:05:49;;;;;;;18.60;17.70;;;;;;;;;;5097502;28;20428;-92
2021/07/05 07:08:18;;;;;;;18.90;18.00;;;;;;;;;;5097478;28;20406;-93
2021/07/05 07:10:45;;;;;;;19.80;18.70;;;;;;;;;;5097355;28;20423;-89
2021/07/05 07:13:13;;;;;;;21.13;19.60;;;;;;;;;;5096941;28;20431;-89
2021/07/05 07:15:44;;;;;;;20.40;19.30;;;;;;;;;;5097019;28;20455;-85
2021/07/05 07:18:22;;;;;;;20.70;19.50;;;;;;;;;;5097150;28;20419;-87
2021/07/05 07:20:49;;;;;;;21.03;19.37;;;;;;;;;;5078840;28;20481;-87
2021/07/05 07:23:18;;;;;;;21.43;19.97;;;;;;;;;;5096846;28;20462;-84
2021/07/05 07:25:46;;;;;;;20.43;19.27;;;;;;;;;;5096073;28;20438;-82
2021/07/05 07:28:13;;;;;;;20.63;19.33;;;;;;;;;;5096057;28;20890;-82
2021/07/05 07:30:40;;;;;;;19.37;18.20;;;;;;;;;;5096055;28;20903;-82
2021/07/05 07:33:08;;;;;;;19.77;18.40;;;;;;;;;;5096331;28;20417;-83
2021/07/05 07:35:35;;;;;;;19.37;18.37;;;;;;;;;;5096359;28;20447;-82
2021/07/05 07:38:03;;;;;;;19.80;18.80;;;;;;;;;;5096237;28;20412;-82
2021/07/05 07:40:34;;;;;;;20.47;19.37;;;;;;;;;;5095738;28;20811;-82
2021/07/05 07:43:02;;;;;;;19.23;18.23;;;;;;;;;;5095485;28;20571;-82
2021/07/05 07:45:29;;;;;;;19.33;18.23;;;;;;;;;;5095590;28;20440;-82
2021/07/05 07:47:57;;;;;;;19.60;18.57;;;;;;;;;;5096186;28;20466;-83
2021/07/05 07:50:24;;;;;;;20.27;19.10;;;;;;;;;;5096102;28;20492;-82
2021/07/05 07:52:56;;;;;;;20.63;18.97;;;;;;;;;;5095672;28;20468;-82
2021/07/05 07:55:23;;;;;;;18.87;17.83;;;;;;;;;;5095519;28;20421;-82
2021/07/05 07:57:52;;;;;;;18.47;17.57;;;;;;;;;;5095540;28;20440;-82
2021/07/05 08:00:20;;;;;;;19.00;18.10;;;;;;;;;;5095666;28;20438;-82
2021/07/05 08:02:47;;;;;;;18.40;17.50;;;;;;;;;;5095692;28;20485;-82
2021/07/05 08:05:15;;;;;;;18.90;17.80;;;;;;;;;;5095481;28;20404;-82
2021/07/05 08:07:43;;;;;;;18.27;17.23;;;;;;;;;;5095337;28;20416;-82
2021/07/05 08:10:11;;;;;;;19.30;18.10;;;;;;;;;;5095719;28;20447;-81
2021/07/05 08:12:38;;;;;;;20.47;19.23;;;;;;;;;;5095260;28;20412;-81
2021/07/05 08:15:08;;;;;;;19.47;18.60;;;;;;;;;;5095529;28;20506;-82
2021/07/05 08:17:35;;;;;;;21.37;20.10;;;;;;;;;;5095350;28;20481;-82
2021/07/05 08:20:03;;;;;;;20.83;19.73;;;;;;;;;;5095331;28;20445;-82
2021/07/05 08:22:30;;;;;;;20.50;19.50;;;;;;;;;;5093857;28;20467;-80
2021/07/05 08:24:58;;;;;;;22.50;21.20;;;;;;;;;;5094766;28;20416;-81
2021/07/05 08:27:25;;;;;;;21.97;20.73;;;;;;;;;;5077143;28;20466;-81
2021/07/05 08:29:53;;;;;;;21.53;20.33;;;;;;;;;;5095520;28;20456;-81
2021/07/05 08:32:21;;;;;;;20.60;19.43;;;;;;;;;;5095387;28;20464;-87
2021/07/05 08:34:49;;;;;;;20.93;19.73;;;;;;;;;;5095641;28;20430;-87
2021/07/05 08:37:16;;;;;;;20.77;19.60;;;;;;;;;;5077939;28;20802;-87
2021/07/05 08:39:44;;;;;;;21.67;20.47;;;;;;;;;;5094922;28;20974;-83
2021/07/05 08:42:11;;;;;;;23.07;21.63;;;;;;;;;;5094877;28;20429;-83
2021/07/05 08:44:41;;;;;;;20.50;19.60;;;;;;;;;;5094950;28;20767;-83
2021/07/05 08:47:09;;;;;;;19.80;18.90;;;;;;;;;;5094692;28;20441;-84
2021/07/05 08:49:38;;;;;;;19.23;18.33;;;;;;;;;;5095328;28;20434;-84
2021/07/05 08:52:06;;;;;;;19.63;18.63;;;;;;;;;;5076596;28;20445;-83
2021/07/05 08:54:33;;;;;;;20.07;19.07;;;;;;;;;;5095047;28;20420;-84
2021/07/05 08:57:01;;;;;;;20.00;19.00;;;;;;;;;;5094456;28;20422;-83
2021/07/05 08:59:28;;;;;;;20.47;19.33;;;;;;;;;;5094403;28;20424;-83
2021/07/05 09:01:55;;;;;;;20.27;19.20;;;;;;;;;;5094501;28;20416;-84
2021/07/05 09:04:23;;;;;;;19.70;18.80;;;;;;;;;;5094390;28;20469;-84
2021/07/05 09:07:05;;;;;;;20.70;19.70;;;;;;;;;;5095202;28;20454;-84
2021/07/05 09:09:32;;;;;;;19.77;18.87;;;;;;;;;;5076523;28;20422;-85
2021/07/05 09:12:03;;;;;;;17.50;16.70;;;;;;;;;;5094654;28;20421;-84
2021/07/05 09:14:31;;;;;;;18.03;17.10;;;;;;;;;;5094168;28;20427;-83
2021/07/05 09:16:58;;;;;;;17.47;16.57;;;;;;;;;;5094152;28;20444;-83
2021/07/05 09:19:26;;;;;;;17.57;16.67;;;;;;;;;;5076654;28;20408;-83
2021/07/05 09:21:54;;;;;;;17.90;17.00;;;;;;;;;;5093886;28;20499;-84
2021/07/05 09:24:32;;;;;;;17.83;17.03;;;;;;;;;;5093938;28;20977;-83
2021/07/05 09:27:05;;;;;;;17.30;16.43;;;;;;;;;;5075937;28;20468;-83
2021/07/05 09:29:33;;;;;;;17.70;16.90;;;;;;;;;;5094386;28;20418;-83
2021/07/05 09:32:01;;;;;;;17.63;16.63;;;;;;;;;;5093753;28;20461;-82
2021/07/05 09:34:30;;;;;;;18.20;17.40;;;;;;;;;;5094153;28;20447;-83
2021/07/05 09:36:58;;;;;;;18.10;17.30;;;;;;;;;;5093828;28;20842;-83
2021/07/05 09:39:26;;;;;;;19.70;18.33;;;;;;;;;;5093865;28;20408;-83
2021/07/05 09:41:56;;;;;;;18.50;17.57;;;;;;;;;;5093745;28;20420;-84
2021/07/05 09:44:24;;;;;;;18.60;17.70;;;;;;;;;;5093745;28;20487;-83
2021/07/05 09:46:52;;;;;;;20.30;19.30;;;;;;;;;;5094126;28;20829;-83
2021/07/05 09:49:21;;;;;;;20.10;19.10;;;;;;;;;;5094400;28;20443;-88
2021/07/05 09:51:49;;;;;;;20.47;19.20;;;;;;;;;;5094255;28;20413;-88
2021/07/05 09:54:18;;;;;;;20.63;19.53;;;;;;;;;;5093702;28;20429;-83
2021/07/05 09:56:46;;;;;;;21.67;20.27;;;;;;;;;;5093928;28;20403;-83
2021/07/05 09:59:19;;;;;;;22.60;21.30;;;;;;;;;;5093753;28;20409;-82
2021/07/05 10:01:47;;;;;;;20.50;19.40;;;;;;;;;;5094058;28;20433;-83
2021/07/05 10:04:22;;;;;;;20.37;19.10;;;;;;;;;;5093997;28;20501;-83
2021/07/05 10:06:49;;;;;;;20.23;19.17;;;;;;;;;;5094179;28;20529;-83
2021/07/05 10:09:19;;;;;;;21.00;19.90;;;;;;;;;;5097764;28;20424;-83
2021/07/05 10:11:47;;;;;;;21.00;19.80;;;;;;;;;;5097741;28;20882;-83
2021/07/05 10:14:15;;;;;;;20.90;19.80;;;;;;;;;;5097905;28;20415;-83
2021/07/05 10:16:45;;;;;;;23.03;21.63;;;;;;;;;;5098058;28;20412;-83
2021/07/05 10:19:15;;;;;;;22.33;21.03;;;;;;;;;;5098051;28;20787;-83
2021/07/05 10:21:43;;;;;;;22.50;21.20;;;;;;;;;;5097531;28;20541;-83
2021/07/05 10:24:11;;;;;;;21.63;20.43;;;;;;;;;;5097851;28;20455;-83
2021/07/05 10:26:39;;;;;;;21.70;20.37;;;;;;;;;;5097241;28;20755;-83
2021/07/05 10:29:07;;;;;;;20.13;19.03;;;;;;;;;;5097425;28;20415;-83
2021/07/05 10:31:35;;;;;;;20.57;19.47;;;;;;;;;;5098497;28;20771;-83
2021/07/05 10:34:04;;;;;;;20.27;19.17;;;;;;;;;;5097469;28;20440;-83
2021/07/05 10:36:34;;;;;;;19.30;18.30;;;;;;;;;;5079400;28;20428;-83
2021/07/05 10:39:02;;;;;;;19.73;18.73;;;;;;;;;;5097458;28;20415;-83
2021/07/05 10:41:37;;;;;;;19.13;18.20;;;;;;;;;;5109924;28;20448;-82
2021/07/05 10:44:05;;;;;;;19.07;17.97;;;;;;;;;;5117441;28;20969;-83
2021/07/05 10:46:38;;;;;;;18.37;17.47;;;;;;;;;;5117628;28;20498;-82
2021/07/05 10:49:07;;;;;;;19.83;18.80;;;;;;;;;;5117291;28;20476;-82
2021/07/05 10:51:44;;;;;;;18.73;17.73;;;;;;;;;;5117583;28;20759;-82
2021/07/05 10:54:12;;;;;;;19.87;18.77;;;;;;;;;;5117376;28;20441;-82
2021/07/05 10:56:43;;;;;;;19.67;18.67;;;;;;;;;;5117397;28;20424;-82
2021/07/05 10:59:30;;;;;;;20.07;18.97;;;;;;;;;;5098893;28;20449;-82
2021/07/05 11:01:57;;;;;;;20.63;19.43;;;;;;;;;;5117072;28;20412;-82
2021/07/05 11:04:29;;;;;;;19.60;18.60;;;;;;;;;;5117296;28;20485;-83
2021/07/05 11:06:58;;;;;;;20.73;19.53;;;;;;;;;;5117042;28;20445;-83
2021/07/05 11:09:25;;;;;;;19.60;18.60;;;;;;;;;;5117162;28;20445;-82
2021/07/05 11:11:55;;;;;;;19.53;18.53;;;;;;;;;;5117142;28;20750;-82
2021/07/05 11:14:24;;;;;;;19.87;18.77;;;;;;;;;;5117187;28;20526;-83
2021/07/05 11:16:58;;;;;;;19.97;18.83;;;;;;;;;;5116866;28;20433;-83
2021/07/05 11:19:44;;;;;;;20.17;19.17;;;;;;;;;;5115761;28;20440;-83
2021/07/05 11:22:13;;;;;;;19.97;18.97;;;;;;;;;;5116924;28;20856;-83
2021/07/05 11:24:58;;;;;;;20.00;18.80;;;;;;;;;;5116581;28;20478;-82
2021/07/05 11:27:28;;;;;;;19.43;18.30;;;;;;;;;;5116592;28;20495;-82
2021/07/05 11:29:56;;;;;;;20.57;19.37;;;;;;;;;;5116601;28;20781;-82
2021/07/05 11:32:36;;;;;;;20.03;19.03;;;;;;;;;;5116484;28;20426;-82
2021/07/05 11:35:06;;;;;;;20.47;19.37;;;;;;;;;;5116719;28;20430;-82
2021/07/05 11:37:36;;;;;;;20.77;19.67;;;;;;;;;;5116447;28;20439;-82
2021/07/05 11:40:04;;;;;;;20.43;19.33;;;;;;;;;;5116190;28;20433;-82
2021/07/05 11:42:50;;;;;;;21.20;20.10;;;;;;;;;;5116691;28;20397;-83
2021/07/05 11:45:37;;;;;;;20.40;19.40;;;;;;;;;;5115739;28;20462;-83
2021/07/05 11:48:05;;;;;;;19.60;18.60;;;;;;;;;;5109797;28;20413;-82
2021/07/05 11:50:34;;;;;;;19.53;18.53;;;;;;;;;;5104404;28;20435;-82
2021/07/05 11:53:02;;;;;;;20.90;19.70;;;;;;;;;;5105240;28;20443;-83
2021/07/05 11:55:30;;;;;;;22.57;21.00;;;;;;;;;;5103788;28;20451;-82
2021/07/05 11:57:59;;;;;;;20.97;19.87;;;;;;;;;;5104290;28;20447;-82
2021/07/05 12:00:27;;;;;;;21.50;20.13;;;;;;;;;;5104559;28;20405;-83
2021/07/05 12:03:05;;;;;;;21.30;19.90;;;;;;;;;;5102024;28;20412;-83
2021/07/05 12:05:35;;;;;;;21.43;20.10;;;;;;;;;;5103986;28;20459;-82
2021/07/05 12:08:03;;;;;;;21.13;19.90;;;;;;;;;;5104963;28;20499;-82
2021/07/05 12:10:31;;;;;;;21.83;20.43;;;;;;;;;;5106738;28;20418;-82
2021/07/05 12:13:14;;;;;;;22.53;20.83;;;;;;;;;;5109892;28;20439;-82
2021/07/05 12:15:43;;;;;;;23.20;21.60;;;;;;;;;;5097465;28;20798;-83
2021/07/05 12:18:15;;;;;;;22.47;21.07;;;;;;;;;;5115644;28;20418;-83
2021/07/05 12:20:44;;;;;;;23.07;21.57;;;;;;;;;;5115574;28;20901;-83
2021/07/05 12:23:12;;;;;;;23.03;21.63;;;;;;;;;;5115510;28;20413;-83
2021/07/05 12:25:39;;;;;;;23.40;21.50;;;;;;;;;;5115153;28;20486;-83
2021/07/05 12:28:14;;;;;;;24.47;22.97;;;;;;;;;;5115523;28;20429;-83
2021/07/05 12:30:46;;;;;;;24.40;22.90;;;;;;;;;;5114953;28;20890;-83
2021/07/05 12:33:13;;;;;;;22.83;21.43;;;;;;;;;;5115383;28;20433;-83
2021/07/05 12:35:41;;;;;;;23.70;22.30;;;;;;;;;;5097328;28;20444;-83
2021/07/05 12:38:16;;;;;;;23.93;22.43;;;;;;;;;;5115294;28;20428;-83
2021/07/05 12:40:44;;;;;;;25.53;23.87;;;;;;;;;;5115120;28;20466;-83
2021/07/05 12:43:12;;;;;;;24.10;22.50;;;;;;;;;;5115071;28;20421;-83
2021/07/05 12:45:42;;;;;;;24.83;23.23;;;;;;;;;;5114955;28;20513;-83
2021/07/05 12:48:13;;;;;;;24.93;23.20;;;;;;;;;;5115350;28;20442;-83
2021/07/05 12:50:42;;;;;;;23.90;22.50;;;;;;;;;;5115222;28;20410;-83
2021/07/05 12:53:28;;;;;;;24.00;22.50;;;;;;;;;;5115266;28;20765;-83
2021/07/05 12:56:00;;;;;;;23.97;22.40;;;;;;;;;;5096945;28;20543;-83
2021/07/05 12:58:51;;;;;;;24.53;23.03;;;;;;;;;;5115147;28;20833;-83
2021/07/05 13:01:20;;;;;;;24.00;22.60;;;;;;;;;;5115081;28;20406;-83
2021/07/05 13:04:00;;;;;;;24.17;22.60;;;;;;;;;;5114642;28;20461;-83
2021/07/05 13:06:28;;;;;;;25.07;23.50;;;;;;;;;;5115063;28;20451;-83
2021/07/05 13:08:58;;;;;;;25.20;23.70;;;;;;;;;;5114721;28;20433;-83
2021/07/05 13:11:26;;;;;;;24.40;22.80;;;;;;;;;;5114689;28;20406;-83
2021/07/05 13:13:53;;;;;;;24.83;23.33;;;;;;;;;;5114952;28;20414;-83
2021/07/05 13:16:22;;;;;;;25.80;24.20;;;;;;;;;;5114535;28;20913;-82
2021/07/05 13:18:50;;;;;;;26.40;24.70;;;;;;;;;;5095844;28;20443;-83
2021/07/05 13:21:31;;;;;;;26.43;24.63;;;;;;;;;;5094029;28;20965;-83
2021/07/05 13:24:00;;;;;;;25.80;24.20;;;;;;;;;;5094142;28;20431;-83
2021/07/05 13:26:34;;;;;;;25.67;24.07;;;;;;;;;;5094274;28;20447;-83
2021/07/05 13:29:02;;;;;;;26.97;24.97;;;;;;;;;;5076137;28;20451;-82
2021/07/05 13:31:33;;;;;;;26.27;24.57;;;;;;;;;;5094065;28;20408;-83
2021/07/05 13:34:02;;;;;;;26.70;24.80;;;;;;;;;;5096443;28;20478;-82
2021/07/05 13:36:29;;;;;;;26.93;25.10;;;;;;;;;;5096490;28;20826;-83
2021/07/05 13:38:57;;;;;;;25.90;24.40;;;;;;;;;;5093989;28;20414;-83
2021/07/05 13:41:26;;;;;;;26.87;25.17;;;;;;;;;;5092975;28;21024;-83
2021/07/05 13:43:58;;;;;;;26.87;25.27;;;;;;;;;;5094088;28;20432;-83
2021/07/05 13:46:25;;;;;;;26.87;25.00;;;;;;;;;;5094763;28;20447;-83
2021/07/05 13:48:53;;;;;;;27.97;26.00;;;;;;;;;;5094089;28;20532;-83
2021/07/05 13:51:20;;;;;;;28.07;26.07;;;;;;;;;;5095071;28;20437;-83
2021/07/05 13:53:48;;;;;;;27.63;25.67;;;;;;;;;;5094137;28;20771;-83
2021/07/05 13:56:18;;;;;;;25.50;23.93;;;;;;;;;;5094080;28;20415;-83
2021/07/05 13:58:49;;;;;;;27.27;25.40;;;;;;;;;;5094074;28;20479;-83
2021/07/05 14:01:18;;;;;;;26.43;24.70;;;;;;;;;;5094884;28;20426;-81
2021/07/05 14:03:46;;;;;;;27.30;25.40;;;;;;;;;;5096843;28;20426;-82
2021/07/05 14:06:14;;;;;;;26.63;24.93;;;;;;;;;;5096813;28;20568;-83
2021/07/05 14:08:42;;;;;;;25.93;24.13;;;;;;;;;;5093592;28;20420;-83
2021/07/05 14:11:10;;;;;;;26.00;24.20;;;;;;;;;;5093481;28;20948;-83
2021/07/05 14:13:39;;;;;;;25.50;23.90;;;;;;;;;;5093775;28;20889;-83
2021/07/05 14:16:09;;;;;;;24.90;23.17;;;;;;;;;;5093483;28;20451;-83
2021/07/05 14:18:39;;;;;;;26.70;24.90;;;;;;;;;;5075884;28;20416;-83
2021/07/05 14:21:07;;;;;;;26.23;24.30;;;;;;;;;;5093459;28;20481;-83
2021/07/05 14:23:34;;;;;;;27.23;25.00;;;;;;;;;;5093458;28;20407;-83
2021/07/05 14:26:01;;;;;;;25.57;23.77;;;;;;;;;;5093273;28;20456;-82